Bayard, Nebraska
Current Conditions -  °F | °C
As of 9:53 PM on Saturday 25 Oct 2014 (Local Time) from KBFF Reporting Station
Clear Clear  
Wind Chill: 50°   Ceiling: Unl
Heat Index: 50°   Visibility: 10mi
Dew Point: 38°   Wind: 9mph
Humidity: 63%   Direction: 110°ESE
Pressure: 29.95"   Gusts: NA
Location:  41.75°N, 103.32°W
Report Text: KBFF 260353Z AUTO 11008KT 10SM CLR 10/03 A2995 RMK AO2 SLP124 T01000033
Loading
Personal Weather Stations






























Interactive Weather Map
Tropical Storm Tracking
New forecast layout! Learn more

10-Day Weather Forecast

Advertisements
Track Severe Weather on mobile